Latest Weather Observations for Shepparton

IDV60801

Issued at 11:35 pm EST Monday 1 September 2014 (issued every 30 minutes, with the page automatically refreshed every 10 minutes)

About weather observations | Map of weather stations | Latest weather observations for VIC | Other Formats
Station Details ID: 081125 Name: SHEPPARTON AIRPORT Lat: -36.43 Lon: 145.39 Height: 113.9 m
Data from the previous 72 hours. | See also: Recent months at Shepparton
Date/Time
EST
Temp
°C
App
Temp
°C
Dew
Point
Rel
Hum
%
Delta-T
°C
Wind Press
QNH
hPa
Press
MSL
hPa
Rain
since 9 am
mm
Dir
 
Spd
km/h
Gust
km/h
Spd
kts
Gust
kts
01/11:30pm 8.0 5.3 7.4 96 0.3 W 11 15 6 8 1012.8 1012.8 13.2
01/11:00pm 8.0 5.4 7.6 97 0.2 WSW 11 17 6 9 1012.9 1012.9 13.2
01/10:30pm 8.0 6.7 7.6 97 0.2 WSW 4 11 2 6 1012.4 1012.4 13.2
01/10:00pm 8.7 6.3 8.6 99 0.0 W 11 13 6 7 1012.6 1012.6 13.2
01/09:30pm 8.7 7.1 8.6 99 0.0 W 7 9 4 5 1012.4 1012.4 13.2
01/09:00pm 8.8 5.7 8.7 99 0.0 SW 15 22 8 12 1012.3 1012.3 13.2
01/08:30pm 8.9 5.7 8.6 98 0.1 WSW 15 20 8 11 1012.3 1012.3 13.2
01/08:00pm 9.2 6.1 8.7 97 0.2 W 15 19 8 10 1012.1 1012.1 12.4
01/07:30pm 10.3 7.9 10.1 99 0.1 NNW 13 19 7 10 1011.5 1011.5 10.8
01/07:00pm 10.4 8.8 10.2 99 0.1 NW 9 13 5 7 1011.2 1011.2 10.8
01/06:30pm 10.4 8.8 10.2 99 0.1 WNW 9 11 5 6 1011.2 1011.2 10.6
01/06:00pm 10.5 8.5 10.3 99 0.1 NW 11 17 6 9 1011.0 1011.0 10.4
01/05:30pm 10.8 8.2 10.6 99 0.1 WNW 15 20 8 11 1010.8 1010.8 9.8
01/05:00pm 11.2 10.2 11.0 99 0.1 N 7 11 4 6 1010.6 1010.6 8.8
01/04:30pm 11.2 10.2 11.0 99 0.1 NNW 7 11 4 6 1010.4 1010.4 7.0
01/04:00pm 11.3 10.5 11.1 99 0.1 NW 6 9 3 5 1010.2 1010.2 5.8
01/03:30pm 11.3 10.9 11.1 99 0.1 NW 4 9 2 5 1009.9 1010.0 5.4
01/03:00pm 11.3 10.3 11.0 98 0.2 W 7 13 4 7 1010.2 1010.2 4.6
01/02:30pm 11.2 10.1 10.7 97 0.3 W 7 11 4 6 1010.0 1010.1 3.8
01/02:00pm 10.9 8.9 10.0 94 0.5 W 11 17 6 9 1010.2 1010.2 2.2
01/01:30pm 12.4 10.0 10.0 85 1.2 W 13 19 7 10 1009.9 1010.0 0.6
01/01:00pm 14.0 12.3 8.2 68 2.9 WSW 7 15 4 8 1009.6 1009.7 0.0
01/12:30pm 15.7 11.9 5.6 51 4.9 W 15 20 8 11 1010.2 1010.2 0.0
01/12:00pm 15.8 10.9 5.1 49 5.1 WNW 20 26 11 14 1010.3 1010.3 0.0
01/11:30am 15.1 11.9 6.7 57 4.1 NNW 13 15 7 8 1010.5 1010.5 0.0
01/11:00am 14.6 10.6 6.7 59 3.9 N 17 26 9 14 1010.5 1010.5 0.0
01/10:30am 14.4 9.9 6.3 58 3.9 N 19 24 10 13 1010.6 1010.6 0.0
01/10:00am 13.5 9.4 6.1 61 3.5 N 17 24 9 13 1010.9 1010.9 0.0
01/09:30am 13.1 8.7 6.7 65 3.1 N 19 26 10 14 1010.9 1011.0 0.0
01/09:00am 12.6 7.2 6.2 65 3.1 NNE 24 32 13 17 1010.7 1010.8 0.0
01/08:30am 11.8 7.7 6.3 69 2.6 NNE 17 28 9 15 1011.1 1011.2 0.0
01/08:00am 11.3 7.2 6.2 71 2.4 NNE 17 22 9 12 1011.3 1011.4 0.0
01/07:30am 10.7 6.2 6.3 74 2.1 NNE 19 24 10 13 1011.6 1011.7 0.0
01/07:00am 10.5 6.4 6.1 74 2.1 NE 17 26 9 14 1011.6 1011.7 0.0
01/06:30am 10.8 6.3 6.0 72 2.2 NNE 19 28 10 15 1012.0 1012.1 0.0
01/06:00am 11.0 7.3 6.2 72 2.3 NNE 15 22 8 12 1012.2 1012.3 0.0
01/05:30am 11.4 6.7 5.9 69 2.6 NNE 20 28 11 15 1011.9 1012.0 0.0
01/05:00am 10.9 6.2 6.1 72 2.3 NNE 20 30 11 16 1011.2 1011.3 0.0
01/04:30am 10.7 6.2 6.1 73 2.2 NNE 19 26 10 14 1011.8 1011.9 0.0
01/04:00am 11.0 6.5 6.0 71 2.3 NNE 19 26 10 14 1012.1 1012.2 0.0
01/03:30am 10.7 6.2 6.1 73 2.2 NNE 19 26 10 14 1012.2 1012.3 0.0
01/03:00am 10.6 6.1 6.2 74 2.1 NNE 19 24 10 13 1012.6 1012.7 0.0
01/02:30am 10.4 6.3 6.2 75 2.0 NNE 17 22 9 12 1013.0 1013.1 0.0
01/02:00am 10.6 6.9 6.2 74 2.1 NNE 15 22 8 12 1013.3 1013.5 0.0
01/01:30am 11.1 7.4 6.3 72 2.3 NNE 15 20 8 11 1013.6 1013.8 0.0
01/01:00am 11.3 8.0 6.2 71 2.4 NNE 13 20 7 11 1013.9 1014.1 0.0
01/12:30am 12.0 8.3 6.5 69 2.6 NNE 15 20 8 11 1013.6 1013.8 0.0
01/12:00am 12.2 8.2 6.7 69 2.6 NE 17 22 9 12 1013.6 1013.8 0.0
 
Date/Time
EST
Temp
°C
App
Temp
°C
Dew
Point
Rel
Hum
%
Delta-T
°C
Wind Press
QNH
hPa
Press
MSL
hPa
Rain
since 9 am
mm
Dir
 
Spd
km/h
Gust
km/h
Spd
kts
Gust
kts
31/11:30pm 12.5 8.1 6.5 67 2.9 NNE 19 28 10 15 1014.0 1014.2 0.0
31/11:00pm 13.0 8.7 6.8 66 3.0 NE 19 24 10 13 1014.1 1014.3 0.0
31/10:30pm 13.2 9.3 7.0 66 3.0 NE 17 24 9 13 1014.6 1014.8 0.0
31/10:00pm 13.3 9.4 7.1 66 3.0 NE 17 22 9 12 1014.8 1015.0 0.0
31/09:30pm 14.0 10.1 7.1 63 3.4 NE 17 24 9 13 1015.1 1015.3 0.0
31/09:00pm 14.3 10.4 7.1 62 3.5 NE 17 22 9 12 1015.3 1015.5 0.0
31/08:30pm 14.5 11.0 7.1 61 3.6 NE 15 20 8 11 1015.2 1015.4 0.0
31/08:00pm 14.6 11.4 6.9 60 3.8 NE 13 17 7 9 1015.3 1015.5 0.0
31/07:30pm 15.1 11.5 6.9 58 4.0 NE 15 22 8 12 1015.2 1015.4 0.0
31/07:00pm 15.4 11.9 7.4 59 4.0 ENE 15 24 8 13 1015.3 1015.5 0.0
31/06:30pm 15.9 12.6 7.9 59 4.0 ENE 15 20 8 11 1015.4 1015.6 0.0
31/06:00pm 16.4 13.4 7.9 57 4.3 ENE 13 19 7 10 1015.4 1015.6 0.0
31/05:30pm 17.4 14.9 8.0 54 4.8 NE 11 17 6 9 1015.4 1015.6 0.0
31/05:00pm 18.4 15.0 7.5 49 5.5 NE 15 20 8 11 1015.3 1015.5 0.0
31/04:30pm 19.5 15.6 7.3 45 6.2 NNE 17 28 9 15 1015.4 1015.6 0.0
31/04:00pm 19.5 15.3 7.3 45 6.2 NNE 19 26 10 14 1015.6 1015.8 0.0
31/03:30pm 20.0 15.9 7.7 45 6.4 N 19 24 10 13 1016.1 1016.3 0.0
31/03:00pm 20.2 15.7 6.9 42 6.8 NE 20 26 11 14 1016.1 1016.3 0.0
31/02:30pm 20.0 15.7 7.1 43 6.6 N 19 30 10 16 1016.7 1016.9 0.0
31/02:00pm 19.9 15.8 7.9 46 6.2 NNE 19 30 10 16 1017.3 1017.5 0.0
31/01:30pm 19.4 15.7 7.8 47 6.0 NNE 17 24 9 13 1017.6 1017.8 0.0
31/01:00pm 19.1 15.5 8.4 50 5.6 N 17 26 9 14 1018.1 1018.3 0.0
31/12:30pm 18.9 15.6 9.4 54 5.0 NNE 17 24 9 13 1018.4 1018.6 0.0
31/12:00pm 17.7 14.4 9.6 59 4.3 NE 17 24 9 13 1019.4 1019.5 0.0
31/11:30am 16.6 13.9 9.1 61 3.9 NNE 13 19 7 10 1020.0 1020.1 0.0
31/11:00am 15.9 12.3 8.4 61 3.8 N 17 24 9 13 1020.4 1020.6 0.0
31/10:30am 15.5 12.4 8.7 64 3.5 NNE 15 22 8 12 1020.6 1020.8 0.0
31/10:00am 13.8 10.3 7.3 65 3.2 NNE 15 20 8 11 1020.9 1021.1 0.0
31/09:30am 13.1 9.1 8.4 73 2.4 NNE 19 24 10 13 1021.1 1021.3 0.0
31/09:00am 12.1 9.0 8.8 80 1.6 NE 15 20 8 11 1021.4 1021.6 0.0
31/08:30am 10.5 9.5 10.2 98 0.2 ENE 6 11 3 6 1021.6 1021.8 0.0
31/08:00am 8.1 6.9 8.0 99 0.0 ENE 4 9 2 5 1021.5 1021.7 0.0
31/07:30am 4.8 2.5 4.7 99 0.0 E 6 7 3 4 1021.4 1021.6 0.0
31/07:00am 2.6 1.0 2.5 99 0.0 CALM 0 0 0 0 1021.2 1021.4 0.0
31/06:30am 2.5 0.9 2.4 99 0.0 CALM 0 0 0 0 1021.0 1021.2 0.0
31/06:00am 2.3 0.7 2.2 99 0.0 CALM 0 0 0 0 1020.8 1021.0 0.0
31/05:30am 3.0 1.5 2.9 99 0.0 CALM 0 0 0 0 1020.6 1020.8 0.0
31/05:00am 3.3 1.8 3.2 99 0.0 CALM 0 0 0 0 1020.4 1020.6 0.0
31/04:30am 3.4 2.0 3.3 99 0.0 CALM 0 0 0 0 1020.3 1020.4 0.0
31/04:00am 3.5 2.1 3.4 99 0.0 CALM 0 0 0 0 1020.2 1020.3 0.0
31/03:30am 4.9 3.7 4.8 99 0.0 CALM 0 0 0 0 1020.1 1020.2 0.0
31/03:00am 5.1 4.0 5.0 99 0.0 CALM 0 2 0 1 1020.4 1020.6 0.0
31/02:30am 4.2 1.6 4.1 99 0.0 NE 7 7 4 4 1020.7 1020.9 0.0
31/02:00am 4.4 3.1 4.3 99 0.0 CALM 0 0 0 0 1020.9 1021.1 0.0
31/01:30am 5.4 4.3 5.3 99 0.0 CALM 0 0 0 0 1021.0 1021.2 0.0
31/01:00am 5.0 3.8 4.7 98 0.1 CALM 0 0 0 0 1021.2 1021.4 0.0
31/12:30am 5.0 3.8 4.7 98 0.1 CALM 0 0 0 0 1021.6 1021.8 0.0
31/12:00am 5.7 4.7 5.4 98 0.1 CALM 0 0 0 0 1021.6 1021.8 0.0
 
Date/Time
EST
Temp
°C
App
Temp
°C
Dew
Point
Rel
Hum
%
Delta-T
°C
Wind Press
QNH
hPa
Press
MSL
hPa
Rain
since 9 am
mm
Dir
 
Spd
km/h
Gust
km/h
Spd
kts
Gust
kts
30/11:30pm 6.1 5.1 5.8 98 0.1 CALM 0 0 0 0 1021.9 1022.1 0.0
30/11:00pm 6.5 5.6 6.1 97 0.2 CALM 0 0 0 0 1022.2 1022.4 0.0
30/10:30pm 6.8 6.0 6.5 98 0.1 CALM 0 0 0 0 1022.2 1022.4 0.0
30/10:00pm 7.6 7.0 7.2 97 0.2 CALM 0 0 0 0 1022.3 1022.5 0.0
30/09:30pm 8.0 7.3 7.1 94 0.4 CALM 0 0 0 0 1022.5 1022.7 0.0
30/09:00pm 8.5 7.9 7.3 92 0.6 CALM 0 0 0 0 1022.4 1022.6 0.0
30/08:30pm 8.8 8.1 7.1 89 0.8 CALM 0 0 0 0 1022.3 1022.5 0.0
30/08:00pm 10.0 9.5 7.9 87 1.0 CALM 0 0 0 0 1022.2 1022.4 0.0
30/07:30pm 10.9 10.6 8.5 85 1.2 CALM 0 0 0 0 1022.3 1022.5 0.0
30/07:00pm 11.5 10.2 7.6 77 1.9 E 4 7 2 4 1022.3 1022.5 0.0
30/06:30pm 13.3 11.6 8.2 71 2.5 E 7 9 4 5 1022.2 1022.4 0.0
30/06:00pm 14.7 13.2 8.4 66 3.2 E 6 7 3 4 1022.1 1022.3 0.0
30/05:30pm 17.1 16.8 8.5 57 4.4 CALM 0 0 0 0 1022.2 1022.4 0.0
30/05:00pm 18.9 18.3 8.8 52 5.3 NNW 2 7 1 4 1022.2 1022.4 0.0
30/04:30pm 18.8 18.2 9.0 53 5.2 ENE 2 9 1 5 1022.2 1022.4 0.0
30/04:00pm 18.8 16.7 8.2 50 5.5 E 9 13 5 7 1022.2 1022.4 0.0
30/03:30pm 20.0 19.1 7.7 45 6.4 WNW 2 7 1 4 1022.3 1022.5 0.0
30/03:00pm 19.1 17.5 7.8 48 5.8 NNW 6 9 3 5 1022.7 1022.9 0.0
30/02:30pm 19.1 17.5 8.7 51 5.4 N 7 11 4 6 1022.9 1023.1 0.0
30/02:00pm 18.6 16.7 9.1 54 5.0 NNW 9 15 5 8 1023.3 1023.5 0.0
30/01:30pm 18.2 16.8 9.5 57 4.6 N 7 13 4 7 1023.6 1023.8 0.0
30/01:00pm 18.4 16.5 10.5 60 4.2 N 11 17 6 9 1024.1 1024.3 0.0
30/12:30pm 17.0 15.3 9.7 62 3.8 N 9 17 5 9 1024.5 1024.7 0.0
30/12:00pm 16.4 13.9 9.6 64 3.5 N 13 19 7 10 1025.1 1025.3 0.0
30/11:30am 16.3 13.8 9.7 65 3.5 NNE 13 19 7 10 1025.5 1025.7 0.0
30/11:00am 15.2 12.5 9.1 67 3.1 N 13 22 7 12 1025.9 1026.1 0.0
30/10:30am 14.3 11.2 8.7 69 2.8 NE 15 19 8 10 1026.3 1026.5 0.0
30/10:00am 13.8 11.1 9.0 73 2.4 NE 13 19 7 10 1026.5 1026.7 0.0
30/09:30am 12.5 11.3 8.2 75 2.1 NE 4 9 2 5 1026.7 1026.9 0.0
30/09:00am 10.3 9.9 8.4 88 0.9 CALM 0 0 0 0 1026.7 1026.9 0.0
30/08:30am 7.9 7.4 7.8 99 0.0 CALM 0 0 0 0 1026.8 1027.0 0.0
30/08:00am 5.3 4.2 5.2 99 0.0 CALM 0 2 0 1 1026.7 1026.9 0.0
30/07:30am 3.1 1.6 3.0 99 0.0 CALM 0 0 0 0 1026.5 1026.7 0.0
30/07:00am 1.4 -0.4 1.3 99 0.0 CALM 0 0 0 0 1026.2 1026.4 0.0
30/06:30am 1.3 -0.5 1.2 99 0.0 CALM 0 0 0 0 1025.9 1026.1 0.0
30/06:00am 1.2 -1.8 1.1 99 0.0 S 6 7 3 4 1025.4 1025.6 0.0
30/05:30am 1.3 -0.5 1.2 99 0.0 CALM 0 0 0 0 1025.3 1025.5 0.0
30/05:00am 1.6 -0.2 1.5 99 0.0 CALM 0 2 0 1 1025.1 1025.3 0.0
30/04:30am 2.1 -0.7 2.0 99 0.0 SE 6 9 3 5 1024.9 1025.1 0.0
30/04:00am 2.5 -0.4 2.4 99 0.0 SE 7 7 4 4 1025.0 1025.2 0.0
30/03:30am 2.1 0.4 2.0 99 0.0 CALM 0 0 0 0 1025.2 1025.4 0.0
30/03:00am 3.4 2.0 3.3 99 0.0 CALM 0 0 0 0 1025.3 1025.5 0.0
30/02:30am 3.8 2.4 3.7 99 0.0 CALM 0 0 0 0 1025.3 1025.5 0.0
30/02:00am 4.6 3.4 4.5 99 0.0 CALM 0 0 0 0 1025.3 1025.5 0.0
30/01:30am 4.5 2.5 4.4 99 0.0 S 4 7 2 4 1025.5 1025.7 0.0
30/01:00am 5.0 2.5 4.9 99 0.0 S 7 9 4 5 1025.5 1025.7 0.0
30/12:30am 5.5 2.4 5.4 99 0.0 SSE 11 11 6 6 1025.7 1025.9 0.0
30/12:00am 6.7 5.9 6.6 99 0.0 CALM 0 2 0 1 1025.8 1026.0 0.0

Other Formats:

Comma delimited format used in spreadsheet applications
http://www.bom.gov.au/fwo/IDV60801/IDV60801.94875.axf

JavaScript Object Notation format (JSON) in row-major order
http://www.bom.gov.au/fwo/IDV60801/IDV60801.94875.json